createdAt,value
2022-09-23T00:00:21.273Z,1014.966
2022-09-23T00:05:24.031Z,1014.945
2022-09-23T00:10:26.636Z,1014.906
2022-09-23T00:15:29.171Z,1014.871
2022-09-23T00:20:32.082Z,1014.854
2022-09-23T00:25:40.678Z,1014.831
2022-09-23T00:30:43.607Z,1014.819
2022-09-23T00:35:46.232Z,1014.737
2022-09-23T00:40:48.936Z,1014.72
2022-09-23T00:45:51.719Z,1014.723
2022-09-23T00:50:54.422Z,1014.712
2022-09-23T00:55:57.177Z,1014.718
2022-09-23T01:01:02.890Z,1014.659
2022-09-23T01:06:05.846Z,1014.674
2022-09-23T01:11:08.299Z,1014.611
2022-09-23T01:16:11.187Z,1014.545
2022-09-23T01:21:13.941Z,1014.48
2022-09-23T01:26:16.607Z,1014.439
2022-09-23T01:31:19.298Z,1014.425
2022-09-23T01:36:21.707Z,1014.412
2022-09-23T01:41:24.346Z,1014.376
2022-09-23T01:46:26.857Z,1014.349
2022-09-23T02:01:34.895Z,1014.275
2022-09-23T02:11:40.252Z,1014.2
2022-09-23T02:16:43.028Z,1014.128
2022-09-23T02:21:45.587Z,1014.123
2022-09-23T02:26:48.405Z,1014.015
2022-09-23T02:31:54.028Z,1013.957
2022-09-23T02:36:56.555Z,1013.932
2022-09-23T02:42:01.999Z,1013.873
2022-09-23T02:47:04.892Z,1013.819
2022-09-23T02:52:07.777Z,1013.761
2022-09-23T02:57:10.827Z,1013.726
2022-09-23T03:02:16.488Z,1013.691
2022-09-23T03:07:19.549Z,1013.696
2022-09-23T03:12:22.129Z,1013.672
2022-09-23T03:17:27.805Z,1013.573
2022-09-23T03:27:33.080Z,1013.504
2022-09-23T03:32:35.748Z,1013.505
2022-09-23T03:37:38.450Z,1013.504
2022-09-23T03:52:46.563Z,1013.36
2022-09-23T03:57:49.207Z,1013.315
2022-09-23T04:02:51.929Z,1013.346
2022-09-23T04:07:54.636Z,1013.316
2022-09-23T04:12:59.918Z,1013.217
2022-09-23T04:18:02.512Z,1013.21
2022-09-23T04:23:05.474Z,1013.151
2022-09-23T04:28:08.739Z,1013.134
2022-09-23T04:33:11.643Z,1013.086
2022-09-23T04:38:14.517Z,1013.061
2022-09-23T04:48:19.886Z,1013.034
2022-09-23T04:53:22.693Z,1013.024
2022-09-23T05:03:28.246Z,1013.052
2022-09-23T05:08:31.015Z,1013.041
2022-09-23T05:13:33.671Z,1012.994
2022-09-23T05:18:36.317Z,1013.002
2022-09-23T05:23:38.800Z,1013.015
2022-09-23T05:28:41.573Z,1013.073
2022-09-23T05:38:47.319Z,1013.017
2022-09-23T05:43:50.182Z,1012.984
2022-09-23T05:48:52.694Z,1013.027
2022-09-23T05:53:55.596Z,1013
2022-09-23T05:58:58.374Z,1012.992
2022-09-23T06:09:03.566Z,1012.914
2022-09-23T06:14:06.451Z,1012.943
2022-09-23T06:19:08.878Z,1012.932
2022-09-23T06:24:15.719Z,1012.927
2022-09-23T06:29:17.157Z,1012.873
2022-09-23T06:34:20.569Z,1012.897
2022-09-23T06:39:22.784Z,1012.91
2022-09-23T06:44:25.533Z,1012.984
2022-09-23T06:54:31.275Z,1013.03
2022-09-23T06:59:33.739Z,1013.01
2022-09-23T07:04:39.602Z,1012.949
2022-09-23T07:09:42.328Z,1012.933
2022-09-23T07:19:47.865Z,1013.051
2022-09-23T07:24:50.553Z,1013.054
2022-09-23T07:29:53.174Z,1013.01
2022-09-23T07:34:56.031Z,1013.02
2022-09-23T07:39:58.908Z,1013.027
2022-09-23T07:45:01.622Z,1013.019
2022-09-23T07:50:04.246Z,1013.04
2022-09-23T07:55:06.960Z,1013.07
2022-09-23T08:00:09.324Z,1013.048
2022-09-23T08:05:11.936Z,1013.122
2022-09-23T08:10:14.351Z,1013.046
2022-09-23T08:15:19.688Z,1013.04
2022-09-23T08:20:25.576Z,1012.984
2022-09-23T08:25:31.272Z,1012.975
2022-09-23T08:30:31.277Z,1012.988
2022-09-23T08:35:33.962Z,1012.921
2022-09-23T08:40:39.687Z,1012.919
2022-09-23T08:45:42.858Z,1012.895
2022-09-23T08:50:45.335Z,1012.822
2022-09-23T08:55:47.765Z,1012.776
2022-09-23T09:00:50.516Z,1012.734
2022-09-23T09:05:54.307Z,1012.701
2022-09-23T09:10:56.248Z,1012.764
2022-09-23T09:15:58.877Z,1012.799
2022-09-23T09:21:01.254Z,1012.724
2022-09-23T09:26:04.033Z,1012.728
2022-09-23T09:31:06.631Z,1012.708
2022-09-23T09:36:11.912Z,1012.644
2022-09-23T09:41:14.690Z,1012.558
2022-09-23T09:51:20.030Z,1012.354
2022-09-23T09:56:22.532Z,1012.325
2022-09-23T10:01:25.255Z,1012.245
2022-09-23T10:06:27.801Z,1012.223
2022-09-23T10:11:30.716Z,1012.141
2022-09-23T10:16:33.438Z,1012.092
2022-09-23T10:21:36.294Z,1012.147
2022-09-23T10:31:41.104Z,1012.078
2022-09-23T10:41:46.355Z,1012.003
2022-09-23T10:51:51.629Z,1012.004
2022-09-23T10:56:59.005Z,1012.013
2022-09-23T11:01:58.814Z,1011.981
2022-09-23T11:07:01.933Z,1011.929
2022-09-23T11:12:04.326Z,1011.812
2022-09-23T11:17:08.836Z,1011.813
2022-09-23T11:22:11.568Z,1011.659
2022-09-23T11:27:14.157Z,1011.648
2022-09-23T11:32:16.954Z,1011.602
2022-09-23T11:37:19.565Z,1011.484
2022-09-23T11:42:22.063Z,1011.448
2022-09-23T11:47:24.731Z,1011.318
2022-09-23T11:52:27.708Z,1011.355
2022-09-23T11:57:38.853Z,1011.278
2022-09-23T12:02:33.185Z,1011.242
2022-09-23T12:07:35.878Z,1011.121
2022-09-23T12:12:38.217Z,1011.056
2022-09-23T12:17:41.031Z,1011.047
2022-09-23T12:22:43.770Z,1010.996
2022-09-23T12:27:46.218Z,1010.945
2022-09-23T12:32:48.713Z,1010.905
2022-09-23T12:37:51.272Z,1010.849
2022-09-23T12:42:53.726Z,1010.753
2022-09-23T12:47:56.491Z,1010.711
2022-09-23T12:52:59.347Z,1010.68
2022-09-23T12:58:02.070Z,1010.618
2022-09-23T13:03:04.665Z,1010.564
2022-09-23T13:08:07.132Z,1010.5
2022-09-23T13:13:09.799Z,1010.452
2022-09-23T13:18:12.711Z,1010.378
2022-09-23T13:23:15.527Z,1010.284
2022-09-23T13:28:18.264Z,1010.235
2022-09-23T13:33:20.788Z,1010.16
2022-09-23T13:38:23.609Z,1010.154
2022-09-23T13:43:26.178Z,1010.07
2022-09-23T13:48:28.794Z,1009.968
2022-09-23T13:53:31.518Z,1009.868
2022-09-23T13:58:34.110Z,1009.88
2022-09-23T14:03:37.349Z,1009.781
2022-09-23T14:08:39.187Z,1009.804
2022-09-23T14:13:41.911Z,1009.756
2022-09-23T14:18:44.483Z,1009.706
2022-09-23T14:23:47.323Z,1009.654
2022-09-23T14:28:49.972Z,1009.597
2022-09-23T14:33:52.580Z,1009.529
2022-09-23T14:38:55.479Z,1009.465
2022-09-23T14:43:58.140Z,1009.472
2022-09-23T14:49:00.876Z,1009.433
2022-09-23T14:54:03.474Z,1009.452
2022-09-23T14:59:06.091Z,1009.365
2022-09-23T15:04:08.576Z,1009.367
2022-09-23T15:09:11.296Z,1009.372
2022-09-23T15:14:36.451Z,1009.322
2022-09-23T15:19:16.899Z,1009.275
2022-09-23T15:24:19.483Z,1009.239
2022-09-23T15:29:22.283Z,1009.193
2022-09-23T15:34:24.719Z,1009.168
2022-09-23T15:39:35.674Z,1009.142
2022-09-23T15:44:29.943Z,1009.179
2022-09-23T15:49:32.610Z,1009.153
2022-09-23T15:54:35.334Z,1009.118
2022-09-23T15:59:38.439Z,1009.159
2022-09-23T16:04:40.954Z,1009.088
2022-09-23T16:09:43.632Z,1009.073
2022-09-23T16:14:46.286Z,1009.078
2022-09-23T16:19:48.900Z,1009.041
2022-09-23T16:24:51.663Z,1009.035
2022-09-23T16:29:54.074Z,1008.981
2022-09-23T16:34:56.741Z,1008.944
2022-09-23T16:39:59.219Z,1008.955
2022-09-23T16:45:01.803Z,1008.958
2022-09-23T16:50:04.180Z,1008.901
2022-09-23T16:55:06.945Z,1008.942
2022-09-23T17:00:09.414Z,1008.83
2022-09-23T17:05:12.158Z,1008.812
2022-09-23T17:10:14.792Z,1008.809
2022-09-23T17:15:17.566Z,1008.723
2022-09-23T17:20:20.100Z,1008.697
2022-09-23T17:25:22.944Z,1008.687
2022-09-23T17:30:25.818Z,1008.675
2022-09-23T17:35:28.511Z,1008.701
2022-09-23T17:40:31.513Z,1008.774
2022-09-23T17:45:33.994Z,1008.703
2022-09-23T17:50:36.690Z,1008.677
2022-09-23T17:55:39.379Z,1008.619
2022-09-23T18:00:41.856Z,1008.698
2022-09-23T18:05:44.712Z,1008.69
2022-09-23T18:10:47.379Z,1008.748
2022-09-23T18:15:50.287Z,1008.72
2022-09-23T18:20:52.999Z,1008.718
2022-09-23T18:25:55.659Z,1008.685
2022-09-23T18:30:58.215Z,1008.7
2022-09-23T18:36:00.927Z,1008.659
2022-09-23T18:41:03.454Z,1008.621
2022-09-23T18:46:06.057Z,1008.577
2022-09-23T18:51:08.561Z,1008.582
2022-09-23T18:56:11.189Z,1008.584
2022-09-23T19:01:13.941Z,1008.552
2022-09-23T19:06:20.601Z,1008.58
2022-09-23T19:11:19.330Z,1008.597
2022-09-23T19:16:21.902Z,1008.59
2022-09-23T19:21:24.588Z,1008.589
2022-09-23T19:26:27.310Z,1008.515
2022-09-23T19:31:30.249Z,1008.452
2022-09-23T19:36:32.936Z,1008.422
2022-09-23T19:41:35.477Z,1008.441
2022-09-23T19:46:38.189Z,1008.407
2022-09-23T19:51:40.656Z,1008.389
2022-09-23T19:56:43.546Z,1008.415
2022-09-23T20:01:46.337Z,1008.398
2022-09-23T20:06:49.135Z,1008.344
2022-09-23T20:11:51.880Z,1008.337
2022-09-23T20:16:54.789Z,1008.33
2022-09-23T20:21:57.533Z,1008.312
2022-09-23T20:27:00.356Z,1008.278
2022-09-23T20:32:02.744Z,1008.24
2022-09-23T20:37:05.219Z,1008.2
2022-09-23T20:42:08.038Z,1008.214
2022-09-23T20:47:10.772Z,1008.184
2022-09-23T20:52:13.352Z,1008.195
2022-09-23T20:57:15.989Z,1008.196
2022-09-23T21:02:18.735Z,1008.201
2022-09-23T21:07:21.628Z,1008.117
2022-09-23T21:12:24.337Z,1008.044
2022-09-23T21:17:27.055Z,1008.05
2022-09-23T21:22:29.768Z,1007.987
2022-09-23T21:27:32.619Z,1007.935
2022-09-23T21:32:35.313Z,1007.943
2022-09-23T21:37:38.011Z,1007.926
2022-09-23T21:42:40.640Z,1007.895
2022-09-23T21:47:43.197Z,1007.841
2022-09-23T21:52:45.866Z,1007.855
2022-09-23T21:57:48.683Z,1007.867
2022-09-23T22:02:51.435Z,1007.824
2022-09-23T22:07:53.986Z,1007.797
2022-09-23T22:12:57.251Z,1007.769
2022-09-23T22:18:00.046Z,1007.755
2022-09-23T22:23:02.693Z,1007.753
2022-09-23T22:28:05.455Z,1007.758
2022-09-23T22:33:08.080Z,1007.675
2022-09-23T22:38:10.693Z,1007.648
2022-09-23T22:43:13.494Z,1007.565
2022-09-23T22:48:16.286Z,1007.531
2022-09-23T22:53:19.070Z,1007.465
2022-09-23T22:58:32.067Z,1007.495
2022-09-23T23:03:24.635Z,1007.505
2022-09-23T23:08:27.281Z,1007.548
2022-09-23T23:13:30.197Z,1007.559
2022-09-23T23:18:34.131Z,1007.485
2022-09-23T23:23:36.827Z,1007.454
2022-09-23T23:28:39.630Z,1007.396
2022-09-23T23:33:42.308Z,1007.358
2022-09-23T23:38:45.014Z,1007.33
2022-09-23T23:43:47.581Z,1007.28
2022-09-23T23:48:50.291Z,1007.222
2022-09-23T23:53:52.795Z,1007.266
2022-09-23T23:58:55.510Z,1007.228
